Weather reports worldwide

Advertisment
Chiavari, Italy (16123): temperature & dewpoint: 23.05.2020 15:00:00 - 29.05.2020 15:00:00 (CEST)Chiavari, Italy (16123): wind speed: 23.05.2020 15:00:00 - 29.05.2020 15:00:00 (CEST)Chiavari, Italy (16123): wind direction: 23.05.2020 15:00:00 - 29.05.2020 15:00:00 (CEST)Chiavari, Italy (16123): reduced air pressure: 23.05.2020 15:00:00 - 29.05.2020 15:00:00 (CEST)Chiavari, Italy (16123): precipitation: 23.05.2020 15:00:00 - 29.05.2020 15:00:00 (CEST)
Date & Time tt [°C] td [°C] ff [km/h] ff [kn] dd ppp [hPa] rr [mm]
29.05.2020 15:00:00 - - - - - - -
29.05.2020 14:00:00 22,4 3,9 11 6 ESE 1019,6 0,0
29.05.2020 13:00:00 22,2 5,1 13 7 NE 1019,4 -
29.05.2020 12:00:00 21,5 6,9 2 1 ENE 1019,6 -
29.05.2020 11:00:00 20,3 7,6 13 7 E 1019,6 -
29.05.2020 10:00:00 17,6 13,2 9 5 NNE 1019,6 -
29.05.2020 09:00:00 16,7 12,8 8 4 ENE 1019,0 -
29.05.2020 08:00:00 15,1 12,8 11 6 N 1018,5 -
29.05.2020 07:00:00 14,2 11,9 9 5 NNE 1018,9 -
29.05.2020 06:00:00 15,4 12,1 13 7 ENE 1018,3 -
29.05.2020 05:00:00 14,7 9,7 13 7 NNE 1018,4 -
29.05.2020 04:00:00 14,6 10,2 13 7 NE 1018,7 -
29.05.2020 03:00:00 14,4 10,2 13 7 NE 1018,5 -
29.05.2020 02:00:00 14,5 9,9 15 8 NE 1019,2 0,0
29.05.2020 01:00:00 15,2 10,3 15 8 NNE 1019,8 -
29.05.2020 00:00:00 15,7 10,0 11 6 NE 1020,2 -
28.05.2020 23:00:00 16,5 9,6 13 7 NNE 1020,6 -
28.05.2020 22:00:00 18,0 8,2 8 4 NE 1020,7 -
28.05.2020 21:00:00 20,8 7,7 4 2 N 1020,8 -
28.05.2020 20:00:00 21,8 7,2 5 3 S 1021,0 0,0
28.05.2020 19:00:00 22,6 7,1 9 5 WSW 1021,1 -
28.05.2020 18:00:00 22,4 7,3 9 5 WSW 1021,5 -
28.05.2020 17:00:00 22,4 9,8 8 4 S 1022,1 -
28.05.2020 16:00:00 22,1 9,2 9 5 SSW 1022,5 -
28.05.2020 15:00:00 21,5 12,8 11 6 SW 1023,1 -
28.05.2020 14:00:00 21,7 13,2 11 6 S 1023,7 0,0
28.05.2020 13:00:00 21,9 12,9 11 6 S 1024,2 -
28.05.2020 12:00:00 21,7 11,7 11 6 S 1024,5 -
28.05.2020 11:00:00 21,3 11,0 8 4 WSW 1025,1 -
28.05.2020 10:00:00 20,0 12,5 2 1 SSE 1025,4 -
28.05.2020 09:00:00 17,2 12,8 5 3 NE 1025,8 -
28.05.2020 08:00:00 14,8 11,9 11 6 E 1026,1 0,0
28.05.2020 07:00:00 13,3 11,3 13 7 NE 1026,4 -
28.05.2020 06:00:00 13,5 11,5 13 7 NE 1026,4 -
28.05.2020 05:00:00 14,0 11,8 11 6 NE 1026,4 -
28.05.2020 04:00:00 14,4 12,1 15 8 NE 1026,5 -
28.05.2020 03:00:00 14,9 12,4 16 9 NNE 1026,7 -
28.05.2020 02:00:00 15,2 12,5 13 7 NE 1027,0 0,0
28.05.2020 01:00:00 16,1 13,1 15 8 NE 1027,2 -
28.05.2020 00:00:00 16,6 13,2 13 7 NNE 1027,5 -
27.05.2020 23:00:00 17,5 13,3 9 5 NE 1027,4 -
27.05.2020 22:00:00 19,2 13,1 4 2 NE 1026,9 -
27.05.2020 21:00:00 20,8 11,1 4 2 SW 1026,4 -
27.05.2020 20:00:00 21,4 11,7 8 4 WSW 1026,5 0,0
27.05.2020 19:00:00 22,1 11,4 11 6 SW 1026,6 -
27.05.2020 18:00:00 22,5 10,3 11 6 SSW 1026,8 -
27.05.2020 17:00:00 22,8 9,9 13 7 SW 1027,1 -
27.05.2020 16:00:00 22,8 8,8 15 8 SSW 1027,3 -
27.05.2020 15:00:00 23,2 9,2 16 9 SW 1027,6 -
27.05.2020 14:00:00 23,1 8,0 15 8 S 1028,0 0,0
27.05.2020 13:00:00 21,9 9,7 13 7 SSW 1028,7 -
27.05.2020 12:00:00 21,8 8,3 9 5 S 1028,8 -
27.05.2020 11:00:00 21,7 7,8 9 5 SSW 1028,9 -
27.05.2020 10:00:00 21,0 6,5 5 3 SW 1029,1 -
27.05.2020 09:00:00 18,7 9,4 5 3 NE 1029,0 -
27.05.2020 08:00:00 16,8 10,4 13 7 NE 1028,9 0,0
27.05.2020 07:00:00 15,3 11,1 11 6 NNE 1028,7 -
27.05.2020 06:00:00 15,4 11,2 11 6 NNE 1028,3 -
27.05.2020 05:00:00 15,6 11,7 13 7 NE 1028,0 -
27.05.2020 04:00:00 - - - - - - -
27.05.2020 03:00:00 15,7 11,6 15 8 ENE 1027,6 -
27.05.2020 02:00:00 16,3 12,2 15 8 ENE 1027,4 0,0
27.05.2020 01:00:00 17,0 12,3 11 6 ENE 1027,2 -
27.05.2020 00:00:00 17,6 11,6 13 7 ENE 1026,4 -
26.05.2020 23:00:00 18,4 11,2 13 7 NNE 1025,7 -
26.05.2020 22:00:00 19,8 9,9 9 5 NNE 1024,9 -
26.05.2020 21:00:00 22,6 8,3 4 2 NNE 1023,8 -
26.05.2020 20:00:00 24,4 5,7 2 1 W 1023,7 0,0
26.05.2020 19:00:00 24,3 5,6 5 3 WSW 1023,5 -
26.05.2020 18:00:00 24,5 8,0 5 3 S 1023,5 -
26.05.2020 17:00:00 23,4 7,4 4 2 S 1023,7 -
26.05.2020 16:00:00 24,0 11,3 9 5 WSW 1024,0 -
26.05.2020 15:00:00 23,6 12,5 11 6 SW 1024,4 -
26.05.2020 14:00:00 23,8 12,4 13 7 SW 1024,7 0,0
26.05.2020 13:00:00 23,8 12,4 9 5 SSW 1024,8 -
26.05.2020 12:00:00 23,1 12,4 11 6 SSW 1024,7 -
26.05.2020 11:00:00 23,1 13,2 13 7 S 1024,6 -
26.05.2020 10:00:00 25,1 4,2 4 2 NE 1024,1 -
26.05.2020 09:00:00 22,0 6,6 13 7 NNE 1023,5 -
26.05.2020 08:00:00 18,0 8,8 13 7 N 1023,6 0,0
26.05.2020 07:00:00 15,6 10,5 15 8 NNE 1023,3 -
26.05.2020 06:00:00 15,4 11,2 18 10 NNE 1022,8 -
26.05.2020 05:00:00 14,6 11,3 11 6 ENE 1023,0 -
26.05.2020 04:00:00 15,0 11,9 15 8 NE 1023,2 -
26.05.2020 03:00:00 15,6 12,7 15 8 NE 1023,3 -
26.05.2020 02:00:00 16,0 13,0 16 9 NNE 1023,3 0,0
26.05.2020 01:00:00 16,3 13,1 15 8 NE 1023,4 -
26.05.2020 00:00:00 17,3 13,5 15 8 ENE 1023,2 -
25.05.2020 23:00:00 18,2 13,6 13 7 NNE 1023,1 -
25.05.2020 22:00:00 19,5 12,5 11 6 NNE 1022,7 -
25.05.2020 21:00:00 21,8 9,6 5 3 NE 1022,3 -
25.05.2020 20:00:00 23,3 7,7 5 3 SSW 1022,3 0,0
25.05.2020 19:00:00 23,5 7,1 8 4 SSE 1022,5 -
25.05.2020 18:00:00 23,9 8,3 9 5 S 1022,9 -
25.05.2020 17:00:00 23,9 7,5 11 6 S 1023,2 -
25.05.2020 16:00:00 23,9 9,1 8 4 SSW 1023,8 -
25.05.2020 15:00:00 23,3 10,7 9 5 SW 1024,2 -
25.05.2020 14:00:00 22,9 15,2 13 7 SSW 1024,6 0,0
25.05.2020 13:00:00 22,8 14,5 11 6 S 1025,0 -
25.05.2020 12:00:00 22,3 13,0 11 6 S 1025,2 -
25.05.2020 11:00:00 22,1 13,4 11 6 SW 1025,3 -
25.05.2020 10:00:00 22,4 12,0 5 3 SSW 1025,2 -
25.05.2020 09:00:00 19,3 13,4 5 3 N 1025,0 -
25.05.2020 08:00:00 16,5 12,6 8 4 NE 1025,0 0,0
25.05.2020 07:00:00 14,9 12,0 9 5 E 1024,9 -
25.05.2020 06:00:00 14,9 11,8 9 5 NE 1024,7 -
25.05.2020 05:00:00 16,0 11,7 8 4 NE 1024,4 -
25.05.2020 04:00:00 16,5 11,6 8 4 ENE 1024,1 -
25.05.2020 03:00:00 17,1 11,8 9 5 N 1023,9 -
25.05.2020 02:00:00 18,6 10,9 16 9 N 1024,0 0,0
25.05.2020 01:00:00 18,2 13,0 15 8 NNE 1024,3 -
25.05.2020 00:00:00 18,8 13,8 21 11 NE 1024,2 -
24.05.2020 23:00:00 19,8 14,1 21 11 N 1023,9 -
24.05.2020 22:00:00 20,9 15,6 16 9 NNE 1023,3 -
24.05.2020 21:00:00 22,6 17,0 5 3 NNE 1022,7 -
24.05.2020 20:00:00 23,7 15,4 2 1 WSW 1022,4 0,0
24.05.2020 19:00:00 24,2 14,8 5 3 SSW 1022,2 -
24.05.2020 18:00:00 24,0 14,9 8 4 SSW 1022,2 -
24.05.2020 17:00:00 23,7 14,3 5 3 S 1022,4 -
24.05.2020 16:00:00 23,5 14,1 9 5 S 1022,8 -
24.05.2020 15:00:00 24,1 14,7 11 6 SSW 1023,1 -
24.05.2020 14:00:00 23,3 17,2 11 6 SW 1023,5 0,0
24.05.2020 13:00:00 23,4 17,1 11 6 SSW 1023,5 -
24.05.2020 12:00:00 23,4 16,8 11 6 SSW 1023,2 -
24.05.2020 11:00:00 22,7 16,2 9 5 WSW 1023,1 -
24.05.2020 10:00:00 21,0 16,5 4 2 NNE 1023,1 -
24.05.2020 09:00:00 18,7 15,9 11 6 NNE 1022,5 -
24.05.2020 08:00:00 16,9 15,2 11 6 ENE 1022,2 -
24.05.2020 07:00:00 16,2 14,7 11 6 E 1021,8 -
24.05.2020 06:00:00 16,6 15,1 9 5 NNE 1021,4 -
24.05.2020 05:00:00 17,4 15,7 5 3 NE 1021,1 -
24.05.2020 04:00:00 18,1 16,4 13 7 NE 1020,8 -
24.05.2020 03:00:00 18,6 16,5 13 7 NNE 1021,2 -
24.05.2020 02:00:00 18,5 16,4 9 5 N 1021,5 -
24.05.2020 01:00:00 18,7 16,8 2 1 ENE 1022,1 -
24.05.2020 00:00:00 18,9 17,0 8 4 ENE 1022,0 -
23.05.2020 23:00:00 18,9 17,2 8 4 NNE 1022,0 -
23.05.2020 22:00:00 19,4 16,9 5 3 NNE 1022,6 -
23.05.2020 21:00:00 21,3 15,7 4 2 NE 1023,0 -
23.05.2020 20:00:00 21,1 15,8 11 6 S 1022,4 0,0
23.05.2020 19:00:00 21,8 16,2 11 6 SSW 1022,2 -
23.05.2020 18:00:00 22,2 15,5 9 5 S 1022,7 -
23.05.2020 17:00:00 22,2 16,2 13 7 SW 1023,2 -
23.05.2020 16:00:00 22,0 14,8 13 7 S 1023,7 -
23.05.2020 15:00:00 22,1 13,4 13 7 S 1024,5 -

tt = temperature
td = dewpoint
ff = wind speed
dd = wind direction
ppp = reduced air pressure
rr = precipitation

Next stations